createdAt,value
2022-09-14T00:00:58.500Z,18.20
2022-09-14T00:03:34.280Z,18.20
2022-09-14T00:06:07.243Z,18.20
2022-09-14T00:08:34.231Z,18.20
2022-09-14T00:11:03.677Z,18.20
2022-09-14T00:13:30.231Z,18.20
2022-09-14T00:15:56.785Z,18.10
2022-09-14T00:18:24.665Z,18.10
2022-09-14T00:20:51.332Z,18.10
2022-09-14T00:23:17.863Z,18.10
2022-09-14T00:25:44.424Z,18.00
2022-09-14T00:28:11.879Z,18.00
2022-09-14T00:30:41.024Z,18.00
2022-09-14T00:33:07.733Z,18.00
2022-09-14T00:35:35.045Z,18.00
2022-09-14T00:38:01.733Z,17.90
2022-09-14T00:40:28.347Z,17.90
2022-09-14T00:42:54.927Z,17.90
2022-09-14T00:45:21.764Z,17.80
2022-09-14T00:47:49.837Z,17.80
2022-09-14T00:50:16.436Z,17.80
2022-09-14T00:52:43.679Z,17.80
2022-09-14T00:55:11.349Z,17.80
2022-09-14T00:57:39.157Z,17.80
2022-09-14T01:00:06.725Z,17.80
2022-09-14T01:02:33.382Z,17.80
2022-09-14T01:05:00.018Z,17.70
2022-09-14T01:07:43.042Z,17.80
2022-09-14T01:10:16.974Z,17.70
2022-09-14T01:12:49.629Z,17.70
2022-09-14T01:15:27.431Z,17.70
2022-09-14T01:18:00.182Z,17.70
2022-09-14T01:20:32.812Z,17.70
2022-09-14T01:23:05.279Z,17.70
2022-09-14T01:25:51.217Z,17.70
2022-09-14T01:28:21.444Z,17.60
2022-09-14T01:30:47.988Z,17.60
2022-09-14T01:33:34.759Z,17.50
2022-09-14T01:36:01.389Z,17.60
2022-09-14T01:38:47.354Z,17.60
2022-09-14T01:41:14.629Z,17.60
2022-09-14T01:43:42.783Z,17.60
2022-09-14T01:46:19.493Z,17.60
2022-09-14T01:48:49.661Z,17.60
2022-09-14T01:51:19.652Z,17.50
2022-09-14T01:54:12.543Z,17.50
2022-09-14T01:56:41.469Z,17.40
2022-09-14T01:59:09.894Z,17.40
2022-09-14T02:01:41.082Z,17.30
2022-09-14T02:04:08.829Z,17.30
2022-09-14T02:06:36.851Z,17.20
2022-09-14T02:09:04.895Z,17.20
2022-09-14T02:11:31.434Z,17.20
2022-09-14T02:13:58.019Z,17.10
2022-09-14T02:16:24.645Z,17.10
2022-09-14T02:18:51.210Z,17.10
2022-09-14T02:21:18.691Z,17.00
2022-09-14T02:23:45.893Z,17.00
2022-09-14T02:26:12.485Z,16.90
2022-09-14T02:28:39.083Z,16.80
2022-09-14T02:31:23.312Z,16.70
2022-09-14T02:34:05.117Z,16.70
2022-09-14T02:36:36.235Z,16.60
2022-09-14T02:39:04.949Z,16.60
2022-09-14T02:41:37.325Z,16.60
2022-09-14T02:44:25.885Z,16.50
2022-09-14T02:46:59.540Z,16.40
2022-09-14T02:49:28.576Z,16.40
2022-09-14T02:51:55.048Z,16.40
2022-09-14T02:54:28.007Z,16.30
2022-09-14T02:56:54.539Z,16.30
2022-09-14T02:59:21.094Z,16.20
2022-09-14T03:01:47.682Z,16.20
2022-09-14T03:04:14.324Z,16.10
2022-09-14T03:06:40.851Z,16.10
2022-09-14T03:09:07.403Z,16.10
2022-09-14T03:11:34.201Z,16.10
2022-09-14T03:14:00.852Z,16.10
2022-09-14T03:16:27.436Z,16.00
2022-09-14T03:18:54.038Z,16.00
2022-09-14T03:21:20.595Z,16.00
2022-09-14T03:23:47.716Z,15.90
2022-09-14T03:26:15.047Z,15.80
2022-09-14T03:28:41.604Z,15.80
2022-09-14T03:31:08.609Z,15.70
2022-09-14T03:33:35.192Z,15.70
2022-09-14T03:36:03.125Z,15.70
2022-09-14T03:38:30.163Z,15.70
2022-09-14T03:40:57.924Z,15.60
2022-09-14T03:43:24.476Z,15.60
2022-09-14T03:45:51.033Z,15.50
2022-09-14T03:48:17.557Z,15.50
2022-09-14T03:50:44.108Z,15.40
2022-09-14T03:53:10.632Z,15.40
2022-09-14T03:55:37.175Z,15.30
2022-09-14T03:58:03.715Z,15.30
2022-09-14T04:00:30.273Z,15.20
2022-09-14T04:02:56.846Z,15.20
2022-09-14T04:05:23.438Z,15.10
2022-09-14T04:07:50.007Z,15.10
2022-09-14T04:10:16.579Z,15.10
2022-09-14T04:12:43.116Z,15.10
2022-09-14T04:15:09.701Z,15.00
2022-09-14T04:17:36.273Z,15.00
2022-09-14T04:20:03.005Z,15.00
2022-09-14T04:22:29.540Z,15.00
2022-09-14T04:24:56.113Z,14.90
2022-09-14T04:27:22.649Z,14.90
2022-09-14T04:29:50.410Z,14.80
2022-09-14T04:32:16.981Z,14.80
2022-09-14T04:34:43.531Z,14.80
2022-09-14T04:37:10.065Z,14.70
2022-09-14T04:39:36.672Z,14.80
2022-09-14T04:42:03.213Z,14.80
2022-09-14T04:44:29.760Z,14.80
2022-09-14T04:46:56.375Z,14.80
2022-09-14T04:49:22.939Z,14.80
2022-09-14T04:51:49.511Z,14.70
2022-09-14T04:54:16.470Z,14.70
2022-09-14T04:56:43.026Z,14.70
2022-09-14T04:59:10.215Z,14.70
2022-09-14T05:01:38.940Z,14.70
2022-09-14T05:04:05.674Z,14.70
2022-09-14T05:06:33.292Z,14.70
2022-09-14T05:09:00.434Z,14.60
2022-09-14T05:11:30.863Z,14.70
2022-09-14T05:13:57.572Z,14.70
2022-09-14T05:16:27.240Z,14.70
2022-09-14T05:18:54.595Z,14.70
2022-09-14T05:21:21.438Z,14.60
2022-09-14T05:23:48.104Z,14.60
2022-09-14T05:26:14.914Z,14.70
2022-09-14T05:28:41.763Z,14.70
2022-09-14T05:31:09.275Z,14.60
2022-09-14T05:33:35.861Z,14.60
2022-09-14T05:36:03.089Z,14.70
2022-09-14T05:38:30.008Z,14.70
2022-09-14T05:40:56.559Z,14.70
2022-09-14T05:43:23.117Z,14.70
2022-09-14T05:45:49.750Z,14.70
2022-09-14T05:48:16.503Z,14.70
2022-09-14T05:50:43.129Z,14.60
2022-09-14T05:53:09.686Z,14.60
2022-09-14T05:55:36.236Z,14.60
2022-09-14T05:58:02.829Z,14.60
2022-09-14T06:00:29.519Z,14.60
2022-09-14T06:02:56.264Z,14.50
2022-09-14T06:05:22.910Z,14.60
2022-09-14T06:07:52.811Z,14.60
2022-09-14T06:10:19.750Z,14.60
2022-09-14T06:12:46.281Z,14.60
2022-09-14T06:15:12.833Z,14.60
2022-09-14T06:17:39.379Z,14.50
2022-09-14T06:20:08.033Z,14.50
2022-09-14T06:22:34.559Z,14.60
2022-09-14T06:25:01.108Z,14.60
2022-09-14T06:27:27.678Z,14.70
2022-09-14T06:29:54.605Z,14.70
2022-09-14T06:32:23.105Z,14.70
2022-09-14T06:34:49.644Z,14.70
2022-09-14T06:37:16.186Z,14.70
2022-09-14T06:39:42.798Z,14.70
2022-09-14T06:42:09.392Z,14.70
2022-09-14T06:44:35.966Z,14.70
2022-09-14T06:47:02.491Z,14.80
2022-09-14T06:49:29.162Z,14.80
2022-09-14T06:51:57.406Z,14.80
2022-09-14T06:54:24.178Z,14.80
2022-09-14T06:56:50.723Z,14.80
2022-09-14T06:59:17.392Z,14.80
2022-09-14T07:01:45.497Z,14.70
2022-09-14T07:04:12.117Z,14.70
2022-09-14T07:06:39.456Z,14.70
2022-09-14T07:09:06.118Z,14.60
2022-09-14T07:11:32.767Z,14.60
2022-09-14T07:13:59.857Z,14.60
2022-09-14T07:16:26.637Z,14.50
2022-09-14T07:18:56.491Z,14.50
2022-09-14T07:21:23.189Z,14.50
2022-09-14T07:23:49.752Z,14.50
2022-09-14T07:26:20.259Z,14.50
2022-09-14T07:28:48.270Z,14.50
2022-09-14T07:31:22.231Z,14.60
2022-09-14T07:33:48.983Z,14.50
2022-09-14T07:36:15.619Z,14.50
2022-09-14T07:38:52.052Z,14.60
2022-09-14T07:41:20.524Z,14.60
2022-09-14T07:43:50.383Z,14.60
2022-09-14T07:46:16.986Z,14.50
2022-09-14T07:48:43.643Z,14.50
2022-09-14T07:51:10.375Z,14.60
2022-09-14T07:53:42.577Z,14.60
2022-09-14T07:56:09.514Z,14.50
2022-09-14T07:58:36.079Z,14.60
2022-09-14T08:01:04.496Z,14.60
2022-09-14T08:03:31.639Z,14.60
2022-09-14T08:06:02.392Z,14.70
2022-09-14T08:08:33.120Z,14.70
2022-09-14T08:11:06.921Z,14.70
2022-09-14T08:13:33.982Z,14.80
2022-09-14T08:16:02.256Z,14.80
2022-09-14T08:18:29.434Z,14.90
2022-09-14T08:20:56.206Z,14.90
2022-09-14T08:23:22.933Z,15.00
2022-09-14T08:25:49.636Z,15.10
2022-09-14T08:28:16.174Z,15.10
2022-09-14T08:30:42.764Z,15.10
2022-09-14T08:33:09.296Z,15.20
2022-09-14T08:35:57.387Z,15.30
2022-09-14T08:38:24.884Z,15.40
2022-09-14T08:40:51.528Z,15.50
2022-09-14T08:43:18.460Z,15.50
2022-09-14T08:45:45.071Z,15.60
2022-09-14T08:48:16.024Z,15.70
2022-09-14T08:50:42.564Z,15.70
2022-09-14T08:53:09.095Z,15.80
2022-09-14T08:55:37.884Z,15.90
2022-09-14T08:58:12.296Z,16.00
2022-09-14T09:00:42.968Z,16.10
2022-09-14T09:03:09.913Z,16.20
2022-09-14T09:05:39.673Z,16.10
2022-09-14T09:08:38.941Z,16.10
2022-09-14T09:11:07.232Z,16.10
2022-09-14T09:13:34.516Z,16.10
2022-09-14T09:16:02.537Z,16.10
2022-09-14T09:18:40.516Z,16.20
2022-09-14T09:21:08.353Z,16.30
2022-09-14T09:23:34.905Z,16.30
2022-09-14T09:26:03.720Z,16.40
2022-09-14T09:28:30.261Z,16.30
2022-09-14T09:31:10.157Z,16.40
2022-09-14T09:33:39.373Z,16.50
2022-09-14T09:36:06.379Z,16.50
2022-09-14T09:38:33.162Z,16.50
2022-09-14T09:41:11.829Z,16.60
2022-09-14T09:44:16.987Z,16.70
2022-09-14T09:46:48.052Z,16.70
2022-09-14T09:49:16.244Z,16.80
2022-09-14T09:51:42.798Z,16.70
2022-09-14T09:54:12.306Z,16.70
2022-09-14T09:56:39.521Z,16.80
2022-09-14T09:59:24.785Z,16.80
2022-09-14T10:01:52.257Z,16.70
2022-09-14T10:04:21.658Z,16.60
2022-09-14T10:06:48.908Z,16.50
2022-09-14T10:09:16.965Z,16.40
2022-09-14T10:11:43.585Z,16.40
2022-09-14T10:14:40.415Z,16.30
2022-09-14T10:17:07.905Z,16.30
2022-09-14T10:19:34.458Z,16.30
2022-09-14T10:22:05.595Z,16.30
2022-09-14T10:24:32.967Z,16.30
2022-09-14T10:26:59.517Z,16.30
2022-09-14T10:29:32.873Z,16.40
2022-09-14T10:32:01.385Z,16.30
2022-09-14T10:34:28.552Z,16.30
2022-09-14T10:36:59.104Z,16.40
2022-09-14T10:39:26.988Z,16.30
2022-09-14T10:42:01.798Z,16.30
2022-09-14T10:44:39.541Z,16.40
2022-09-14T10:47:06.085Z,16.30
2022-09-14T10:49:40.922Z,16.30
2022-09-14T10:52:20.818Z,16.40
2022-09-14T10:54:57.912Z,16.30
2022-09-14T10:57:27.484Z,16.30
2022-09-14T10:59:55.168Z,16.20
2022-09-14T11:02:30.877Z,16.20
2022-09-14T11:05:01.296Z,16.10
2022-09-14T11:07:40.340Z,16.00
2022-09-14T11:10:11.906Z,16.00
2022-09-14T11:12:51.416Z,16.00
2022-09-14T11:15:44.520Z,16.00
2022-09-14T11:18:23.388Z,15.90
2022-09-14T11:21:10.473Z,15.90
2022-09-14T11:23:37.197Z,15.90
2022-09-14T11:26:05.635Z,15.80
2022-09-14T11:28:40.244Z,15.80
2022-09-14T11:31:10.673Z,15.80
2022-09-14T11:33:41.669Z,15.70
2022-09-14T11:36:16.521Z,15.70
2022-09-14T11:38:51.312Z,15.70
2022-09-14T11:41:19.780Z,15.70
2022-09-14T11:43:50.603Z,15.70
2022-09-14T11:46:22.018Z,15.70
2022-09-14T11:48:57.252Z,15.70
2022-09-14T11:51:26.984Z,15.80
2022-09-14T11:53:53.528Z,15.80
2022-09-14T11:56:27.170Z,15.80
2022-09-14T11:58:54.601Z,15.80
2022-09-14T12:01:26.110Z,15.80
2022-09-14T12:04:01.698Z,15.80
2022-09-14T12:06:28.255Z,15.90
2022-09-14T12:08:54.797Z,16.00
2022-09-14T12:11:25.626Z,16.00
2022-09-14T12:14:12.444Z,16.00
2022-09-14T12:17:38.334Z,16.00
2022-09-14T12:20:20.497Z,16.00
2022-09-14T12:22:50.095Z,16.00
2022-09-14T12:25:18.506Z,16.00
2022-09-14T12:27:45.537Z,16.00
2022-09-14T12:30:30.852Z,16.00
2022-09-14T12:32:57.386Z,16.00
2022-09-14T12:35:39.145Z,16.00
2022-09-14T12:38:24.565Z,16.10
2022-09-14T12:40:51.117Z,16.10
2022-09-14T12:43:33.003Z,16.20
2022-09-14T12:46:08.078Z,16.20
2022-09-14T12:48:55.535Z,16.20
2022-09-14T12:51:31.751Z,16.30
2022-09-14T12:53:58.380Z,16.20
2022-09-14T12:56:36.986Z,16.20
2022-09-14T12:59:16.041Z,16.30
2022-09-14T13:02:01.382Z,16.30
2022-09-14T13:04:28.760Z,16.40
2022-09-14T13:06:55.919Z,16.30
2022-09-14T13:09:26.162Z,16.30
2022-09-14T13:12:02.548Z,16.40
2022-09-14T13:14:30.676Z,16.40
2022-09-14T13:16:57.863Z,16.40
2022-09-14T13:19:24.360Z,16.40
2022-09-14T13:21:51.956Z,16.30
2022-09-14T13:24:22.627Z,16.20
2022-09-14T13:26:49.175Z,16.10
2022-09-14T13:29:15.997Z,16.00
2022-09-14T13:31:44.191Z,16.00
2022-09-14T13:34:21.725Z,15.90
2022-09-14T13:36:48.278Z,15.90
2022-09-14T13:39:34.260Z,15.90
2022-09-14T13:42:00.801Z,15.90
2022-09-14T13:44:28.924Z,15.90
2022-09-14T13:46:55.631Z,15.90
2022-09-14T13:49:22.183Z,16.00
2022-09-14T13:51:48.735Z,15.80
2022-09-14T13:54:16.227Z,15.80
2022-09-14T13:56:42.777Z,15.80
2022-09-14T13:59:10.428Z,15.80
2022-09-14T14:01:36.976Z,15.70
2022-09-14T14:04:03.596Z,15.60
2022-09-14T14:06:30.754Z,15.60
2022-09-14T14:08:57.264Z,15.50
2022-09-14T14:11:27.932Z,15.40
2022-09-14T14:13:54.563Z,15.30
2022-09-14T14:16:22.143Z,15.30
2022-09-14T14:18:52.443Z,15.30
2022-09-14T14:21:21.707Z,15.30
2022-09-14T14:24:11.738Z,15.30
2022-09-14T14:26:35.135Z,15.30
2022-09-14T14:29:08.769Z,15.30
2022-09-14T14:31:35.390Z,15.30
2022-09-14T14:34:10.026Z,15.30
2022-09-14T14:36:36.586Z,15.30
2022-09-14T14:39:03.151Z,15.20
2022-09-14T14:41:29.722Z,15.20
2022-09-14T14:43:56.262Z,15.20
2022-09-14T14:46:22.990Z,15.20
2022-09-14T14:48:49.630Z,15.20
2022-09-14T14:51:16.193Z,15.20
2022-09-14T14:53:42.735Z,15.30
2022-09-14T14:56:12.408Z,15.30
2022-09-14T14:58:42.812Z,15.30
2022-09-14T15:01:09.425Z,15.40
2022-09-14T15:03:36.157Z,15.40
2022-09-14T15:06:16.892Z,15.50
2022-09-14T15:08:44.068Z,15.50
2022-09-14T15:11:17.803Z,15.30
2022-09-14T15:13:47.387Z,15.30
2022-09-14T15:16:14.105Z,15.30
2022-09-14T15:18:40.810Z,15.30
2022-09-14T15:21:08.205Z,15.40
2022-09-14T15:23:34.736Z,15.50
2022-09-14T15:26:01.362Z,15.60
2022-09-14T15:28:27.907Z,15.70
2022-09-14T15:30:54.512Z,15.80
2022-09-14T15:33:21.089Z,15.90
2022-09-14T15:35:52.376Z,16.00
2022-09-14T15:38:18.914Z,15.90
2022-09-14T15:40:45.528Z,15.90
2022-09-14T15:43:12.161Z,15.90
2022-09-14T15:45:38.801Z,15.90
2022-09-14T15:48:05.721Z,15.90
2022-09-14T15:50:32.273Z,15.90
2022-09-14T15:53:02.493Z,15.80
2022-09-14T15:55:29.692Z,15.80
2022-09-14T15:57:56.224Z,15.80
2022-09-14T16:00:22.772Z,15.80
2022-09-14T16:02:49.606Z,15.80
2022-09-14T16:05:18.806Z,15.70
2022-09-14T16:07:45.394Z,15.70
2022-09-14T16:10:11.925Z,15.60
2022-09-14T16:12:38.474Z,15.60
2022-09-14T16:15:05.309Z,15.60
2022-09-14T16:17:31.873Z,15.50
2022-09-14T16:19:58.406Z,15.60
2022-09-14T16:22:25.222Z,15.50
2022-09-14T16:24:51.756Z,15.50
2022-09-14T16:27:18.397Z,15.50
2022-09-14T16:29:44.933Z,15.40
2022-09-14T16:32:11.487Z,15.30
2022-09-14T16:34:38.057Z,15.30
2022-09-14T16:37:04.621Z,15.20
2022-09-14T16:39:31.649Z,15.20
2022-09-14T16:41:59.855Z,15.20
2022-09-14T16:44:27.700Z,15.10
2022-09-14T16:46:57.560Z,15.10
2022-09-14T16:49:27.576Z,15.10
2022-09-14T16:51:55.334Z,15.10
2022-09-14T16:54:22.275Z,15.00
2022-09-14T16:56:49.023Z,15.00
2022-09-14T16:59:17.471Z,15.00
2022-09-14T17:01:44.867Z,14.90
2022-09-14T17:04:13.248Z,14.90
2022-09-14T17:06:41.215Z,15.00
2022-09-14T17:09:09.080Z,15.00
2022-09-14T17:11:35.974Z,14.90
2022-09-14T17:14:02.729Z,15.00
2022-09-14T17:16:29.569Z,15.00
2022-09-14T17:18:57.397Z,15.00
2022-09-14T17:21:25.000Z,15.00
2022-09-14T17:23:51.548Z,15.00
2022-09-14T17:26:19.227Z,14.90
2022-09-14T17:28:49.589Z,14.90
2022-09-14T17:31:17.477Z,14.80
2022-09-14T17:33:44.081Z,14.80
2022-09-14T17:36:10.670Z,14.80
2022-09-14T17:38:38.024Z,14.80
2022-09-14T17:41:05.655Z,14.80
2022-09-14T17:43:32.696Z,14.80
2022-09-14T17:45:59.322Z,14.80
2022-09-14T17:48:26.627Z,14.80
2022-09-14T17:50:53.648Z,14.80
2022-09-14T17:53:20.706Z,14.70
2022-09-14T17:55:47.737Z,14.70
2022-09-14T17:58:19.476Z,14.70
2022-09-14T18:00:46.394Z,14.70
2022-09-14T18:03:13.042Z,14.70
2022-09-14T18:05:39.641Z,14.70
2022-09-14T18:08:06.787Z,14.70
2022-09-14T18:10:35.119Z,14.80
2022-09-14T18:13:01.668Z,14.80
2022-09-14T18:15:28.208Z,14.80
2022-09-14T18:17:55.220Z,14.80
2022-09-14T18:20:21.747Z,14.80
2022-09-14T18:22:48.321Z,14.80
2022-09-14T18:25:14.869Z,14.70
2022-09-14T18:27:41.442Z,14.80
2022-09-14T18:30:08.331Z,14.70
2022-09-14T18:32:34.987Z,14.70
2022-09-14T18:35:01.520Z,14.70
2022-09-14T18:37:28.075Z,14.70
2022-09-14T18:39:54.666Z,14.70
2022-09-14T18:42:21.247Z,14.70
2022-09-14T18:44:51.328Z,14.80
2022-09-14T18:47:21.552Z,14.70
2022-09-14T18:49:49.877Z,14.70
2022-09-14T18:52:19.435Z,14.70
2022-09-14T18:54:45.963Z,14.70
2022-09-14T18:57:12.529Z,14.70
2022-09-14T18:59:39.409Z,14.70
2022-09-14T19:02:06.067Z,14.70
2022-09-14T19:04:32.625Z,14.70
2022-09-14T19:07:00.037Z,14.70
2022-09-14T19:09:26.573Z,14.60
2022-09-14T19:11:53.125Z,14.70
2022-09-14T19:14:20.573Z,14.60
2022-09-14T19:16:47.120Z,14.70
2022-09-14T19:19:14.057Z,14.70
2022-09-14T19:21:40.664Z,14.70
2022-09-14T19:24:10.335Z,14.70
2022-09-14T19:26:45.371Z,14.60
2022-09-14T19:29:15.804Z,14.60
2022-09-14T19:31:42.390Z,14.60
2022-09-14T19:34:09.607Z,14.60
2022-09-14T19:36:36.152Z,14.60
2022-09-14T19:39:02.982Z,14.70
2022-09-14T19:41:30.326Z,14.70
2022-09-14T19:43:56.883Z,14.70
2022-09-14T19:46:23.555Z,14.60
2022-09-14T19:48:50.164Z,14.60
2022-09-14T19:51:18.481Z,14.60
2022-09-14T19:53:48.762Z,14.60
2022-09-14T19:56:15.817Z,14.50
2022-09-14T19:58:43.086Z,14.50
2022-09-14T20:01:09.657Z,14.50
2022-09-14T20:03:39.631Z,14.50
2022-09-14T20:06:10.150Z,14.40
2022-09-14T20:08:36.926Z,14.40
2022-09-14T20:11:07.194Z,14.30
2022-09-14T20:13:34.092Z,14.30
2022-09-14T20:16:01.101Z,14.40
2022-09-14T20:18:30.342Z,14.30
2022-09-14T20:20:56.871Z,14.40
2022-09-14T20:23:23.411Z,14.40
2022-09-14T20:25:50.010Z,14.40
2022-09-14T20:28:16.878Z,14.40
2022-09-14T20:30:43.462Z,14.40
2022-09-14T20:33:10.064Z,14.40
2022-09-14T20:35:36.833Z,14.50
2022-09-14T20:38:03.368Z,14.50
2022-09-14T20:40:29.996Z,14.40
2022-09-14T20:42:56.572Z,14.50
2022-09-14T20:45:23.111Z,14.50
2022-09-14T20:47:49.653Z,14.50
2022-09-14T20:50:16.190Z,14.50
2022-09-14T20:52:42.736Z,14.50
2022-09-14T20:55:09.433Z,14.50
2022-09-14T20:57:35.984Z,14.50
2022-09-14T21:00:02.700Z,14.50
2022-09-14T21:02:30.510Z,14.50
2022-09-14T21:04:57.040Z,14.50
2022-09-14T21:07:23.587Z,14.50
2022-09-14T21:09:50.129Z,14.50
2022-09-14T21:12:16.717Z,14.50
2022-09-14T21:14:45.025Z,14.40
2022-09-14T21:17:11.575Z,14.40
2022-09-14T21:19:38.223Z,14.40
2022-09-14T21:22:06.250Z,14.30
2022-09-14T21:24:34.968Z,14.30
2022-09-14T21:27:01.578Z,14.30
2022-09-14T21:29:28.119Z,14.10
2022-09-14T21:31:54.705Z,14.10
2022-09-14T21:34:21.286Z,14.10
2022-09-14T21:36:48.976Z,14.10
2022-09-14T21:39:16.420Z,14.10
2022-09-14T21:41:44.155Z,14.00
2022-09-14T21:44:10.880Z,14.00
2022-09-14T21:46:37.494Z,13.90
2022-09-14T21:49:04.217Z,13.90
2022-09-14T21:51:31.738Z,13.80
2022-09-14T21:53:59.312Z,13.80
2022-09-14T21:56:26.820Z,13.70
2022-09-14T21:58:57.417Z,13.70
2022-09-14T22:01:24.372Z,13.70
2022-09-14T22:03:53.891Z,13.60
2022-09-14T22:06:22.312Z,13.60
2022-09-14T22:08:49.171Z,13.60
2022-09-14T22:11:23.445Z,13.50
2022-09-14T22:13:54.243Z,13.50
2022-09-14T22:16:20.860Z,13.50
2022-09-14T22:18:48.772Z,13.40
2022-09-14T22:21:15.318Z,13.30
2022-09-14T22:23:41.857Z,13.30
2022-09-14T22:26:09.228Z,13.30
2022-09-14T22:28:36.237Z,13.30
2022-09-14T22:31:02.881Z,13.30
2022-09-14T22:33:29.483Z,13.20
2022-09-14T22:35:57.071Z,13.30
2022-09-14T22:38:24.308Z,13.20
2022-09-14T22:40:54.492Z,13.20
2022-09-14T22:43:21.303Z,13.20
2022-09-14T22:45:47.877Z,13.20
2022-09-14T22:48:14.464Z,13.20
2022-09-14T22:50:44.127Z,13.20
2022-09-14T22:53:10.697Z,13.10
2022-09-14T22:55:37.736Z,13.10
2022-09-14T22:58:04.352Z,13.00
2022-09-14T23:00:31.057Z,13.00
2022-09-14T23:02:57.635Z,13.00
2022-09-14T23:05:24.217Z,13.00
2022-09-14T23:07:50.760Z,13.00
2022-09-14T23:10:17.594Z,13.00
2022-09-14T23:12:44.157Z,12.90
2022-09-14T23:15:10.689Z,12.90
2022-09-14T23:17:37.236Z,12.80
2022-09-14T23:20:04.059Z,12.80
2022-09-14T23:22:30.603Z,12.80
2022-09-14T23:24:57.137Z,12.70
2022-09-14T23:27:23.705Z,12.70
2022-09-14T23:29:50.353Z,12.70
2022-09-14T23:32:16.939Z,12.80
2022-09-14T23:34:43.464Z,12.70
2022-09-14T23:37:10.008Z,12.80
2022-09-14T23:39:36.633Z,12.80
2022-09-14T23:42:04.240Z,12.80
2022-09-14T23:44:30.887Z,12.90
2022-09-14T23:46:57.441Z,12.80
2022-09-14T23:49:23.986Z,12.90
2022-09-14T23:51:50.541Z,12.90
2022-09-14T23:54:17.122Z,12.90
2022-09-14T23:56:43.849Z,12.90
2022-09-14T23:59:11.330Z,12.90
